createdAt,value
2022-12-15T00:01:38.994Z,57.50
2022-12-15T00:04:09.409Z,38.50
2022-12-15T00:06:39.855Z,38.50
2022-12-15T00:09:14.239Z,37.25
2022-12-15T00:11:42.769Z,24.25
2022-12-15T00:14:13.260Z,34.00
2022-12-15T00:16:43.594Z,54.00
2022-12-15T00:19:13.928Z,58.25
2022-12-15T00:21:44.188Z,58.75
2022-12-15T00:24:14.512Z,84.00
2022-12-15T00:26:44.784Z,69.50
2022-12-15T00:29:15.005Z,43.25
2022-12-15T00:31:45.480Z,70.00
2022-12-15T00:34:15.835Z,50.25
2022-12-15T00:36:46.137Z,49.50
2022-12-15T00:39:18.500Z,45.00
2022-12-15T00:41:48.793Z,37.75
2022-12-15T00:44:20.853Z,40.00
2022-12-15T00:46:51.664Z,33.50
2022-12-15T00:49:29.846Z,47.50
2022-12-15T00:52:00.979Z,49.50
2022-12-15T00:54:31.571Z,50.00
2022-12-15T00:57:01.981Z,40.50
2022-12-15T00:59:32.533Z,39.25
2022-12-15T01:02:03.834Z,40.50
2022-12-15T01:04:34.799Z,50.00
2022-12-15T01:07:05.117Z,55.25
2022-12-15T01:09:35.443Z,47.00
2022-12-15T01:12:05.833Z,63.75
2022-12-15T01:14:36.368Z,56.25
2022-12-15T01:17:06.809Z,45.25
2022-12-15T01:19:38.318Z,30.75
2022-12-15T01:22:08.733Z,38.75
2022-12-15T01:24:39.481Z,41.00
2022-12-15T01:27:09.734Z,43.25
2022-12-15T01:29:40.172Z,45.25
2022-12-15T01:32:10.532Z,42.00
2022-12-15T01:34:40.831Z,39.50
2022-12-15T01:37:11.255Z,20.50
2022-12-15T01:39:41.982Z,26.25
2022-12-15T01:42:13.947Z,36.50
2022-12-15T01:44:47.028Z,26.50
2022-12-15T01:47:19.001Z,28.75
2022-12-15T01:49:50.102Z,22.75
2022-12-15T01:52:20.494Z,30.50
2022-12-15T01:54:53.719Z,29.50
2022-12-15T01:57:27.103Z,36.50
2022-12-15T02:00:00.438Z,17.75
2022-12-15T02:02:37.052Z,25.50
2022-12-15T02:05:07.912Z,21.00
2022-12-15T02:07:38.300Z,17.75
2022-12-15T02:10:09.842Z,24.75
2022-12-15T02:12:51.630Z,25.75
2022-12-15T02:15:27.692Z,33.50
2022-12-15T02:18:18.920Z,26.00
2022-12-15T02:21:03.975Z,22.00
2022-12-15T02:24:01.348Z,18.50
2022-12-15T02:26:50.330Z,32.75
2022-12-15T02:29:39.958Z,23.50
2022-12-15T02:32:33.702Z,20.25
2022-12-15T02:37:56.495Z,17.50
2022-12-15T02:40:26.795Z,10.50
2022-12-15T02:43:00.257Z,21.00
2022-12-15T02:45:36.873Z,44.00
2022-12-15T02:48:36.086Z,23.75
2022-12-15T02:51:33.687Z,120.00
2022-12-15T02:54:18.685Z,73.50
2022-12-15T02:57:00.021Z,55.75
2022-12-15T02:59:51.255Z,51.25
2022-12-15T03:02:23.431Z,70.25
2022-12-15T03:04:55.241Z,69.75
2022-12-15T03:07:27.274Z,81.00
2022-12-15T03:10:01.187Z,69.75
2022-12-15T03:12:31.898Z,79.75
2022-12-15T03:15:02.483Z,48.75
2022-12-15T03:17:33.344Z,81.50
2022-12-15T03:20:03.930Z,81.00
2022-12-15T03:22:35.466Z,77.75
2022-12-15T03:25:06.631Z,79.25
2022-12-15T03:27:37.597Z,86.00
2022-12-15T03:30:08.974Z,84.00
2022-12-15T03:32:39.680Z,59.75
2022-12-15T03:35:09.974Z,42.75
2022-12-15T03:37:41.383Z,41.25
2022-12-15T03:40:12.220Z,63.75
2022-12-15T03:42:45.258Z,72.25
2022-12-15T03:45:18.399Z,82.00
2022-12-15T03:47:49.589Z,84.00
2022-12-15T03:50:22.911Z,78.50
2022-12-15T03:53:01.842Z,47.75
2022-12-15T03:55:33.140Z,45.50
2022-12-15T03:58:03.803Z,42.25
2022-12-15T04:00:34.663Z,55.00
2022-12-15T04:03:05.522Z,70.50
2022-12-15T04:05:36.549Z,53.00
2022-12-15T04:08:07.169Z,82.00
2022-12-15T04:10:37.884Z,49.25
2022-12-15T04:13:10.416Z,56.00
2022-12-15T04:15:41.466Z,57.25
2022-12-15T04:18:12.128Z,63.25
2022-12-15T04:20:42.522Z,62.25
2022-12-15T04:23:14.335Z,43.50
2022-12-15T04:25:45.039Z,43.25
2022-12-15T04:28:15.390Z,58.25
2022-12-15T04:30:48.683Z,50.00
2022-12-15T04:33:26.322Z,59.00
2022-12-15T04:35:54.427Z,34.00
2022-12-15T04:38:25.430Z,38.25
2022-12-15T04:40:55.899Z,39.75
2022-12-15T04:43:26.448Z,29.75
2022-12-15T04:45:56.725Z,42.25
2022-12-15T04:48:27.199Z,76.00
2022-12-15T04:50:57.594Z,67.75
2022-12-15T04:53:28.170Z,90.40
2022-12-15T04:55:58.811Z,70.75
2022-12-15T04:58:29.045Z,71.50
2022-12-15T05:00:59.655Z,77.25
2022-12-15T05:03:30.244Z,43.75
2022-12-15T05:06:02.328Z,46.50
2022-12-15T05:08:33.810Z,40.50
2022-12-15T05:11:04.140Z,44.75
2022-12-15T05:13:35.566Z,54.00
2022-12-15T05:16:06.090Z,47.00
2022-12-15T05:18:37.172Z,52.25
2022-12-15T05:21:07.597Z,61.25
2022-12-15T05:23:38.672Z,75.00
2022-12-15T05:26:09.311Z,85.25
2022-12-15T05:28:39.668Z,70.50
2022-12-15T05:31:10.786Z,40.50
2022-12-15T05:33:43.183Z,69.75
2022-12-15T05:36:13.907Z,85.25
2022-12-15T05:38:44.816Z,75.25
2022-12-15T05:41:15.500Z,88.25
2022-12-15T05:43:46.847Z,82.50
2022-12-15T05:46:17.691Z,86.50
2022-12-15T05:48:48.888Z,81.00
2022-12-15T05:51:21.610Z,87.50
2022-12-15T05:53:55.513Z,63.75
2022-12-15T05:56:30.447Z,83.75
2022-12-15T05:59:01.497Z,44.50
2022-12-15T06:01:32.648Z,66.50
2022-12-15T06:04:03.255Z,54.00
2022-12-15T06:06:34.635Z,62.25
2022-12-15T06:09:05.213Z,82.00
2022-12-15T06:11:36.269Z,107.00
2022-12-15T06:14:07.369Z,99.75
2022-12-15T06:16:50.168Z,90.00
2022-12-15T06:19:11.662Z,94.75
2022-12-15T06:21:42.627Z,78.75
2022-12-15T06:24:13.154Z,102.50
2022-12-15T06:26:43.658Z,106.25
2022-12-15T06:29:14.599Z,105.00
2022-12-15T06:31:44.965Z,88.50
2022-12-15T06:34:17.244Z,71.75
2022-12-15T06:36:47.569Z,76.50
2022-12-15T06:39:18.143Z,53.50
2022-12-15T06:41:48.686Z,57.50
2022-12-15T06:44:19.556Z,49.00
2022-12-15T06:46:49.937Z,36.50
2022-12-15T06:49:20.443Z,44.00
2022-12-15T06:51:51.059Z,51.75
2022-12-15T06:54:21.446Z,79.00
2022-12-15T06:56:51.943Z,49.25
2022-12-15T06:59:22.755Z,64.25
2022-12-15T07:01:53.586Z,51.50
2022-12-15T07:04:24.368Z,67.25
2022-12-15T07:06:54.854Z,56.00
2022-12-15T07:09:26.051Z,67.00
2022-12-15T07:11:56.868Z,51.25
2022-12-15T07:14:27.203Z,69.00
2022-12-15T07:16:57.698Z,94.00
2022-12-15T07:19:28.196Z,67.75
2022-12-15T07:21:58.816Z,43.25
2022-12-15T07:24:29.804Z,39.75
2022-12-15T07:27:00.545Z,62.00
2022-12-15T07:29:31.192Z,85.00
2022-12-15T07:32:04.735Z,82.50
2022-12-15T07:34:55.461Z,84.75
2022-12-15T07:37:26.152Z,35.00
2022-12-15T07:39:56.589Z,33.25
2022-12-15T07:42:28.500Z,51.50
2022-12-15T07:45:00.294Z,52.75
2022-12-15T07:47:35.718Z,68.00
2022-12-15T07:50:07.148Z,39.75
2022-12-15T07:52:38.012Z,38.25
2022-12-15T07:55:09.375Z,43.00
2022-12-15T07:57:41.374Z,50.00
2022-12-15T08:00:13.107Z,25.25
2022-12-15T08:02:44.069Z,41.00
2022-12-15T08:05:14.698Z,33.00
2022-12-15T08:07:45.474Z,37.25
2022-12-15T08:10:19.538Z,45.00
2022-12-15T08:12:50.140Z,36.75
2022-12-15T08:15:20.540Z,29.75
2022-12-15T08:17:50.968Z,27.00
2022-12-15T08:20:21.730Z,33.75
2022-12-15T08:22:52.928Z,35.50
2022-12-15T08:25:26.133Z,37.00
2022-12-15T08:28:17.220Z,29.50
2022-12-15T08:30:47.877Z,33.50
2022-12-15T08:33:18.567Z,37.50
2022-12-15T08:35:56.769Z,24.25
2022-12-15T08:38:22.467Z,28.00
2022-12-15T08:40:52.956Z,22.25
2022-12-15T08:43:24.380Z,31.50
2022-12-15T08:45:55.126Z,24.00
2022-12-15T08:48:25.675Z,25.25
2022-12-15T08:50:59.553Z,27.50
2022-12-15T08:53:31.696Z,34.00
2022-12-15T08:56:10.350Z,33.50
2022-12-15T08:58:41.209Z,34.75
2022-12-15T09:01:22.791Z,31.75
2022-12-15T09:03:51.678Z,25.00
2022-12-15T09:06:25.215Z,27.00
2022-12-15T09:08:57.089Z,28.25
2022-12-15T09:11:28.953Z,15.25
2022-12-15T09:13:59.436Z,33.00
2022-12-15T09:16:30.806Z,25.75
2022-12-15T09:19:01.374Z,29.00
2022-12-15T09:21:32.167Z,34.75
2022-12-15T09:24:03.744Z,32.50
2022-12-15T09:26:35.715Z,36.50
2022-12-15T09:29:06.050Z,37.25
2022-12-15T09:31:38.422Z,23.00
2022-12-15T09:34:10.521Z,34.50
2022-12-15T09:36:41.063Z,21.75
2022-12-15T09:39:11.567Z,61.25
2022-12-15T09:41:47.698Z,36.00
2022-12-15T09:44:21.543Z,18.50
2022-12-15T09:47:21.875Z,62.00
2022-12-15T09:50:05.518Z,28.25
2022-12-15T09:52:45.104Z,41.50
2022-12-15T09:55:24.392Z,16.00
2022-12-15T09:57:57.639Z,31.00
2022-12-15T10:00:35.348Z,28.75
2022-12-15T10:03:39.392Z,27.25
2022-12-15T10:06:21.414Z,28.00
2022-12-15T10:09:03.030Z,25.50
2022-12-15T10:11:50.241Z,31.00
2022-12-15T10:14:30.291Z,23.00
2022-12-15T10:17:06.739Z,33.50
2022-12-15T10:19:41.576Z,73.00
2022-12-15T10:22:14.986Z,73.50
2022-12-15T10:27:37.566Z,26.00
2022-12-15T10:30:13.267Z,29.25
2022-12-15T10:32:53.182Z,32.25
2022-12-15T10:35:32.241Z,29.50
2022-12-15T10:38:06.161Z,24.75
2022-12-15T10:43:36.991Z,27.75
2022-12-15T10:46:22.030Z,27.25
2022-12-15T10:48:54.796Z,22.50
2022-12-15T10:51:30.096Z,33.00
2022-12-15T10:54:12.176Z,31.75
2022-12-15T10:56:56.927Z,35.25
2022-12-15T10:59:32.566Z,23.75
2022-12-15T11:02:25.663Z,26.00
2022-12-15T11:05:02.526Z,24.25
2022-12-15T11:07:38.614Z,75.50
2022-12-15T11:10:19.151Z,29.25
2022-12-15T11:13:23.239Z,32.50
2022-12-15T11:15:55.113Z,27.50
2022-12-15T11:18:46.355Z,46.50
2022-12-15T11:21:21.181Z,30.25
2022-12-15T11:24:00.577Z,22.00
2022-12-15T11:27:00.855Z,28.75
2022-12-15T11:29:53.731Z,38.25
2022-12-15T11:32:30.922Z,32.50
2022-12-15T11:35:02.275Z,32.00
2022-12-15T11:37:47.409Z,27.25
2022-12-15T11:40:36.828Z,31.50
2022-12-15T11:43:28.781Z,27.75
2022-12-15T11:46:26.151Z,40.75
2022-12-15T11:48:59.877Z,28.75
2022-12-15T11:51:38.841Z,27.25
2022-12-15T11:54:21.518Z,36.25
2022-12-15T11:56:54.987Z,27.25
2022-12-15T11:59:51.093Z,27.00
2022-12-15T12:02:54.430Z,30.75
2022-12-15T12:05:43.628Z,32.25
2022-12-15T12:08:35.031Z,37.25
2022-12-15T12:11:20.470Z,36.00
2022-12-15T12:19:51.729Z,68.75
2022-12-15T12:22:42.667Z,75.25
2022-12-15T12:25:19.001Z,41.00
2022-12-15T12:28:16.102Z,41.75
2022-12-15T12:30:50.268Z,34.50
2022-12-15T12:33:41.189Z,34.25
2022-12-15T12:36:14.827Z,27.00
2022-12-15T12:38:50.953Z,37.75
2022-12-15T12:41:48.509Z,27.00
2022-12-15T12:44:24.658Z,27.75
2022-12-15T12:46:58.890Z,27.75
2022-12-15T12:49:35.263Z,32.50
2022-12-15T12:52:08.453Z,27.75
2022-12-15T12:54:40.824Z,29.75
2022-12-15T12:57:15.957Z,39.75
2022-12-15T13:00:07.326Z,28.75
2022-12-15T13:02:41.193Z,30.25
2022-12-15T13:05:26.050Z,37.50
2022-12-15T13:08:08.132Z,11.25
2022-12-15T13:10:41.025Z,33.75
2022-12-15T13:13:32.593Z,41.00
2022-12-15T13:16:26.223Z,33.00
2022-12-15T13:19:05.812Z,36.50
2022-12-15T13:21:50.933Z,34.25
2022-12-15T13:24:36.107Z,28.00
2022-12-15T13:27:16.353Z,43.75
2022-12-15T13:29:58.895Z,35.00
2022-12-15T13:32:38.619Z,28.00
2022-12-15T13:35:17.545Z,26.25
2022-12-15T13:37:53.244Z,39.00
2022-12-15T13:40:29.105Z,32.75
2022-12-15T13:43:06.155Z,34.00
2022-12-15T13:45:42.416Z,26.25
2022-12-15T13:48:22.109Z,24.00
2022-12-15T13:51:13.698Z,24.50
2022-12-15T13:56:34.665Z,29.50
2022-12-15T13:59:07.987Z,42.25
2022-12-15T14:01:41.034Z,33.50
2022-12-15T14:04:13.526Z,22.75
2022-12-15T14:09:40.119Z,29.25
2022-12-15T14:12:13.957Z,37.00
2022-12-15T14:14:49.402Z,31.25
2022-12-15T14:17:23.763Z,18.75
2022-12-15T14:19:54.152Z,41.25
2022-12-15T14:22:29.368Z,39.00
2022-12-15T14:25:02.276Z,67.25
2022-12-15T14:27:34.027Z,41.00
2022-12-15T14:30:34.131Z,30.25
2022-12-15T14:33:11.121Z,27.75
2022-12-15T14:35:49.506Z,38.25
2022-12-15T14:38:20.644Z,109.50
2022-12-15T14:40:54.662Z,37.00
2022-12-15T14:43:28.244Z,52.50
2022-12-15T14:46:10.640Z,49.50
2022-12-15T14:48:46.908Z,30.75
2022-12-15T14:51:17.804Z,36.25
2022-12-15T14:53:53.587Z,28.50
2022-12-15T14:59:32.886Z,31.50
2022-12-15T15:02:12.746Z,28.50
2022-12-15T15:03:04.489Z,31.75
2022-12-15T15:03:07.668Z,26.50
2022-12-15T15:03:10.263Z,29.25
2022-12-15T15:04:43.375Z,31.00
2022-12-15T15:07:19.292Z,31.75
2022-12-15T15:09:50.384Z,35.75
2022-12-15T15:12:23.349Z,34.00
2022-12-15T15:15:08.362Z,23.25
2022-12-15T15:17:51.219Z,32.25
2022-12-15T15:20:24.647Z,39.50
2022-12-15T15:23:24.774Z,35.75
2022-12-15T15:25:57.525Z,32.00
2022-12-15T15:28:31.924Z,33.25
2022-12-15T15:31:04.335Z,19.25
2022-12-15T15:33:35.101Z,28.50
2022-12-15T15:36:08.336Z,31.00
2022-12-15T15:38:43.832Z,27.25
2022-12-15T15:41:22.725Z,36.50
2022-12-15T15:43:53.089Z,30.50
2022-12-15T15:46:26.365Z,35.75
2022-12-15T15:48:59.979Z,31.50
2022-12-15T15:51:32.958Z,30.25
2022-12-15T15:54:08.895Z,25.50
2022-12-15T15:56:39.852Z,32.25
2022-12-15T15:59:16.943Z,34.25
2022-12-15T16:01:53.509Z,40.25
2022-12-15T16:04:24.527Z,37.75
2022-12-15T16:06:55.197Z,37.75
2022-12-15T16:09:26.302Z,31.00
2022-12-15T16:11:58.423Z,22.00
2022-12-15T16:14:29.186Z,25.75
2022-12-15T16:16:59.696Z,34.25
2022-12-15T16:19:33.839Z,72.75
2022-12-15T16:22:02.599Z,103.00
2022-12-15T16:24:33.954Z,63.25
2022-12-15T16:27:04.353Z,47.75
2022-12-15T16:29:34.841Z,65.00
2022-12-15T16:32:07.263Z,54.75
2022-12-15T16:34:38.464Z,50.75
2022-12-15T16:37:14.718Z,54.00
2022-12-15T16:39:45.149Z,23.25
2022-12-15T16:42:15.568Z,53.50
2022-12-15T16:44:45.983Z,46.50
2022-12-15T16:47:16.248Z,36.00
2022-12-15T16:49:47.123Z,44.75
2022-12-15T16:52:20.048Z,27.25
2022-12-15T16:54:51.179Z,39.50
2022-12-15T16:57:21.865Z,40.00
2022-12-15T16:59:52.324Z,45.25
2022-12-15T17:02:44.872Z,43.75
2022-12-15T17:05:16.974Z,35.00
2022-12-15T17:07:53.066Z,37.50
2022-12-15T17:10:25.881Z,31.00
2022-12-15T17:13:08.490Z,43.00
2022-12-15T17:15:38.939Z,41.75
2022-12-15T17:18:12.935Z,60.50
2022-12-15T17:20:46.921Z,55.00
2022-12-15T17:23:20.130Z,59.25
2022-12-15T17:26:21.093Z,76.25
2022-12-15T17:28:28.967Z,47.25
2022-12-15T17:31:20.101Z,56.00
2022-12-15T17:33:50.995Z,30.25
2022-12-15T17:36:26.769Z,63.25
2022-12-15T17:38:59.612Z,51.25
2022-12-15T17:41:58.691Z,56.00
2022-12-15T17:44:31.788Z,37.25
2022-12-15T17:46:37.974Z,41.25
2022-12-15T17:49:08.590Z,38.00
2022-12-15T17:51:50.142Z,44.25
2022-12-15T17:54:21.345Z,44.75
2022-12-15T17:56:51.766Z,33.00
2022-12-15T18:02:17.291Z,36.50
2022-12-15T18:04:53.850Z,42.50
2022-12-15T18:07:24.684Z,41.25
2022-12-15T18:09:55.554Z,26.25
2022-12-15T18:12:27.795Z,39.50
2022-12-15T18:15:00.403Z,35.00
2022-12-15T18:17:31.257Z,38.00
2022-12-15T18:20:02.619Z,51.25
2022-12-15T18:22:36.107Z,47.75
2022-12-15T18:25:22.025Z,117.75
2022-12-15T18:27:54.905Z,33.50
2022-12-15T18:30:27.361Z,32.75
2022-12-15T18:32:59.631Z,32.75
2022-12-15T18:35:35.839Z,37.00
2022-12-15T18:38:22.474Z,38.00
2022-12-15T18:41:16.340Z,38.00
2022-12-15T18:43:48.123Z,37.00
2022-12-15T18:46:23.474Z,36.25
2022-12-15T18:48:54.550Z,48.00
2022-12-15T18:51:25.212Z,29.50
2022-12-15T18:53:56.361Z,44.75
2022-12-15T18:56:27.204Z,42.50
2022-12-15T18:58:58.137Z,35.25
2022-12-15T19:01:28.873Z,46.25
2022-12-15T19:04:00.190Z,42.75
2022-12-15T19:06:33.305Z,34.50
2022-12-15T19:09:06.953Z,30.00
2022-12-15T19:11:40.585Z,36.75
2022-12-15T19:14:13.894Z,46.00
2022-12-15T19:16:44.574Z,49.75
2022-12-15T19:19:17.406Z,36.25
2022-12-15T19:21:48.418Z,37.50
2022-12-15T19:24:30.594Z,41.00
2022-12-15T19:27:01.444Z,38.25
2022-12-15T19:29:32.220Z,47.00
2022-12-15T19:32:05.718Z,34.00
2022-12-15T19:34:38.879Z,35.00
2022-12-15T19:40:02.549Z,43.75
2022-12-15T19:42:36.071Z,36.25
2022-12-15T19:45:29.110Z,37.25
2022-12-15T19:48:00.419Z,36.25
2022-12-15T19:50:35.808Z,36.00
2022-12-15T19:53:15.482Z,31.25
2022-12-15T19:55:46.166Z,38.50
2022-12-15T19:58:28.110Z,47.25
2022-12-15T20:01:01.815Z,44.25
2022-12-15T20:03:33.726Z,31.50
2022-12-15T20:06:06.497Z,35.25
2022-12-15T20:08:40.903Z,42.50
2022-12-15T20:11:26.906Z,41.50
2022-12-15T20:13:58.341Z,36.75
2022-12-15T20:16:29.060Z,40.25
2022-12-15T20:19:02.760Z,42.00
2022-12-15T20:21:40.186Z,41.25
2022-12-15T20:24:16.957Z,45.25
2022-12-15T20:26:47.397Z,45.75
2022-12-15T20:29:23.498Z,46.50
2022-12-15T20:34:57.783Z,37.75
2022-12-15T20:37:30.281Z,41.50
2022-12-15T20:40:00.890Z,30.00
2022-12-15T20:42:32.170Z,34.25
2022-12-15T20:45:04.286Z,31.00
2022-12-15T20:47:36.319Z,38.25
2022-12-15T20:50:35.823Z,36.50
2022-12-15T20:53:36.099Z,29.75
2022-12-15T20:59:03.823Z,39.75
2022-12-15T21:01:49.151Z,38.25
2022-12-15T21:04:27.307Z,40.75
2022-12-15T21:06:59.731Z,34.00
2022-12-15T21:09:30.901Z,18.00
2022-12-15T21:12:23.162Z,39.50
2022-12-15T21:14:55.294Z,34.00
2022-12-15T21:17:31.050Z,32.50
2022-12-15T21:20:08.185Z,31.00
2022-12-15T21:22:39.283Z,38.25
2022-12-15T21:25:18.875Z,41.25
2022-12-15T21:28:04.969Z,33.75
2022-12-15T21:30:33.416Z,29.75
2022-12-15T21:33:03.827Z,25.75
2022-12-15T21:35:35.302Z,32.25
2022-12-15T21:38:06.631Z,29.75
2022-12-15T21:40:37.092Z,34.50
2022-12-15T21:43:09.734Z,38.25
2022-12-15T21:45:40.195Z,36.50
2022-12-15T21:48:12.090Z,32.75
2022-12-15T21:51:03.295Z,27.50
2022-12-15T21:53:34.000Z,34.00
2022-12-15T21:56:04.855Z,34.25
2022-12-15T21:58:35.728Z,39.00
2022-12-15T22:01:07.746Z,29.50
2022-12-15T22:03:38.610Z,36.75
2022-12-15T22:06:12.003Z,34.75
2022-12-15T22:08:42.446Z,35.50
2022-12-15T22:11:30.472Z,32.75
2022-12-15T22:14:04.268Z,28.50
2022-12-15T22:16:35.372Z,35.75
2022-12-15T22:19:09.505Z,35.25
2022-12-15T22:21:40.006Z,33.25
2022-12-15T22:24:11.343Z,41.50
2022-12-15T22:26:42.128Z,50.00
2022-12-15T22:29:31.868Z,46.25
2022-12-15T22:32:04.239Z,38.50
2022-12-15T22:34:35.084Z,51.25
2022-12-15T22:37:05.529Z,58.00
2022-12-15T22:39:37.756Z,56.00
2022-12-15T22:44:47.459Z,53.25
2022-12-15T22:47:17.917Z,55.00
2022-12-15T22:49:48.382Z,60.75
2022-12-15T22:52:21.033Z,57.75
2022-12-15T22:54:51.476Z,63.00
2022-12-15T22:57:32.586Z,50.67
2022-12-15T23:00:06.138Z,46.75
2022-12-15T23:02:40.151Z,52.50
2022-12-15T23:05:12.814Z,49.75
2022-12-15T23:07:44.767Z,57.25
2022-12-15T23:10:18.614Z,60.75
2022-12-15T23:12:49.800Z,61.75
2022-12-15T23:15:24.332Z,52.75
2022-12-15T23:17:55.086Z,46.50
2022-12-15T23:20:25.794Z,64.00
2022-12-15T23:22:56.112Z,46.00
2022-12-15T23:25:26.424Z,40.75
2022-12-15T23:27:56.797Z,49.00
2022-12-15T23:30:28.112Z,39.25
2022-12-15T23:32:58.478Z,48.00
2022-12-15T23:35:29.011Z,43.50
2022-12-15T23:37:59.357Z,47.00
2022-12-15T23:40:30.130Z,47.50
2022-12-15T23:43:00.474Z,42.75
2022-12-15T23:45:30.772Z,46.75
2022-12-15T23:48:03.142Z,43.00
2022-12-15T23:50:35.608Z,45.75
2022-12-15T23:53:26.890Z,36.50
2022-12-15T23:55:58.796Z,28.25
2022-12-15T23:58:31.923Z,50.25
